Terminal Aerodrome Forecast
Issued by NWS Wilmington, OH

Current Version | Previous Version | Text Only | Print | Product List | Glossary Off
Versions: 1 2 3 4 5 6 7 8 9 10 11 12 13 14 15 16 17 18

000
FTUS41 KILN 271124
TAFILN
TAF
KILN 271124Z 2712/2812 VRB02KT P6SM BKN050
     FM271400 04005KT P6SM BKN050
     FM272100 05005KT P6SM SCT050
     FM280000 06003KT P6SM SKC
     FM280800 VRB02KT 4SM BR SKC
     FM281000 VRB02KT 2SM BR SKC=

USA.gov is the U.S. government's official web portal to all federal, state and local government web resources and services.